This is the latest recevied weather packets stored in our database for station/object HP3ICC-22. If no packets are shown the sender has not sent any weather packets the latest 1 day(s).
| Time | Temp. | Humidity | Pressure | Rain* | Wind** | Luminosity | Snow |
|---|---|---|---|---|---|---|---|
| 1778040193 | 10° C | 91% | 1014 hPa | 0 mm | 1.34 m/s, 9° | - | - |
| 1778039052 | 10.56° C | 79% | 1015 hPa | 0 mm | 1.34 m/s, 9° | - | - |
| 1778038992 | 10.56° C | 79% | 1015 hPa | 0 mm | 1.34 m/s, 9° | - | - |
| 1778037852 | 10° C | 87% | 1014 hPa | 0 mm | 1.34 m/s, 3° | - | - |
| 1778037792 | 10° C | 87% | 1014 hPa | 0 mm | 1.34 m/s, 3° | - | - |
| 1778036651 | 10° C | 81% | 1014 hPa | 0 mm | 1.34 m/s, 3° | - | - |
| 1778036591 | 10° C | 81% | 1014 hPa | 0 mm | 1.34 m/s, 3° | - | - |
| 1778035451 | 11.11° C | 79% | 1015 hPa | 0 mm | 1.34 m/s, 3° | - | - |
| 1778035391 | 11.11° C | 79% | 1015 hPa | 0 mm | 1.34 m/s, 3° | - | - |
| 1778034250 | 10° C | 87% | 1015 hPa | 0 mm | 1.34 m/s, 8° | - | - |
| 1778034190 | 10° C | 87% | 1015 hPa | 0 mm | 1.34 m/s, 8° | - | - |
| 1778033050 | 10° C | 81% | 1013 hPa | 0 mm | 1.34 m/s, 8° | - | - |
| 1778032989 | 10° C | 81% | 1013 hPa | 0 mm | 1.34 m/s, 8° | - | - |
| 1778031849 | 11.11° C | 79% | 1014 hPa | 0 mm | 1.34 m/s, 8° | - | - |
| 1778031789 | 11.11° C | 79% | 1014 hPa | 0 mm | 1.34 m/s, 8° | - | - |
| 1778030649 | 10° C | 91% | 1013 hPa | 0 mm | 1.34 m/s, 20° | - | - |
| 1778030588 | 10° C | 91% | 1013 hPa | 0 mm | 1.34 m/s, 20° | - | - |
| 1778029448 | 10.56° C | 91% | 1013 hPa | 0 mm | 1.34 m/s, 20° | - | - |
| 1778029388 | 10.56° C | 91% | 1013 hPa | 0 mm | 1.34 m/s, 20° | - | - |
| 1778028247 | 11.11° C | 79% | 1014 hPa | 0 mm | 1.34 m/s, 20° | - | - |
| 1778028187 | 11.11° C | 79% | 1014 hPa | 0 mm | 1.34 m/s, 20° | - | - |
| 1778027047 | 10.56° C | 88% | 1012 hPa | 0 mm | 1.34 m/s, 31° | - | - |
| 1778026987 | 10.56° C | 88% | 1012 hPa | 0 mm | 1.34 m/s, 31° | - | - |
| 1778025846 | 10.56° C | 88% | 1012 hPa | 0 mm | 1.34 m/s, 31° | - | - |
| 1778025786 | 10.56° C | 88% | 1012 hPa | 0 mm | 1.34 m/s, 31° | - | - |
* Rain latest hour (hover to see other rain measurements)
** Current wind speed in m/s (hover to see current wind gust speed)